Time;durP1;ratioP1;P1;durP2;ratioP2;P2;SDS_P1;SDS_P2;PMS_P1;PMS_P2;Temp;Humidity;BMP_temperature;BMP_pressure;BME280_temperature;BME280_humidity;BME280_pressure;Samples;Min_cycle;Max_cycle;Signal;HPM_P1;HPM_P2
2021/01/23 00:00:44;;;;;;;39.80;28.10;;;;;;;;;;2064301;28;20239;-58
2021/01/23 00:01:44;;;;;;;41.90;26.83;;;;;;;;;;2063858;28;20563;-57
2021/01/23 00:02:44;;;;;;;45.63;28.07;;;;;;;;;;2064035;28;20232;-56
2021/01/23 00:03:44;;;;;;;42.13;26.63;;;;;;;;;;2064817;28;20170;-57
2021/01/23 00:04:45;;;;;;;42.47;27.03;;;;;;;;;;2073255;28;20184;-57
2021/01/23 00:05:45;;;;;;;42.67;27.50;;;;;;;;;;2069089;28;20260;-57
2021/01/23 00:06:45;;;;;;;41.77;26.87;;;;;;;;;;2065353;28;20201;-55
2021/01/23 00:07:46;;;;;;;43.57;26.37;;;;;;;;;;2064931;28;20184;-59
2021/01/23 00:08:46;;;;;;;37.70;25.23;;;;;;;;;;2065083;28;20186;-57
2021/01/23 00:09:46;;;;;;;36.13;24.47;;;;;;;;;;2056560;28;20647;-55
2021/01/23 00:10:46;;;;;;;44.27;26.50;;;;;;;;;;2056981;28;20214;-58
2021/01/23 00:11:47;;;;;;;41.57;26.87;;;;;;;;;;2064896;28;20209;-56
2021/01/23 00:12:48;;;;;;;39.90;26.53;;;;;;;;;;2066173;28;20188;-53
2021/01/23 00:13:48;;;;;;;40.73;26.70;;;;;;;;;;2071725;28;20177;-58
2021/01/23 00:14:48;;;;;;;42.30;27.47;;;;;;;;;;2069050;28;20208;-57
2021/01/23 00:15:48;;;;;;;39.43;27.33;;;;;;;;;;2073121;28;20259;-57
2021/01/23 00:16:49;;;;;;;41.70;27.07;;;;;;;;;;2073318;28;20667;-56
2021/01/23 00:17:49;;;;;;;43.03;26.07;;;;;;;;;;2072890;28;20185;-56
2021/01/23 00:18:49;;;;;;;42.17;27.53;;;;;;;;;;2073247;28;20173;-59
2021/01/23 00:19:49;;;;;;;44.30;26.77;;;;;;;;;;2066765;28;20173;-56
2021/01/23 00:20:50;;;;;;;41.43;26.93;;;;;;;;;;2065350;28;20555;-59
2021/01/23 00:21:51;;;;;;;37.67;25.10;;;;;;;;;;2065131;28;20206;-59
2021/01/23 00:22:51;;;;;;;41.73;26.53;;;;;;;;;;2057574;28;20266;-56
2021/01/23 00:23:51;;;;;;;35.47;23.93;;;;;;;;;;2055880;28;20180;-55
2021/01/23 00:24:51;;;;;;;44.33;26.53;;;;;;;;;;2059079;28;20713;-58
2021/01/23 00:25:52;;;;;;;39.67;27.03;;;;;;;;;;2072605;28;20612;-58
2021/01/23 00:26:52;;;;;;;36.37;25.13;;;;;;;;;;2073171;28;20165;-54
2021/01/23 00:27:52;;;;;;;42.17;25.73;;;;;;;;;;2066055;28;20549;-59
2021/01/23 00:28:52;;;;;;;38.77;26.47;;;;;;;;;;2070826;28;20303;-53
2021/01/23 00:29:53;;;;;;;40.40;26.07;;;;;;;;;;2069724;28;20185;-57
2021/01/23 00:30:53;;;;;;;38.73;25.23;;;;;;;;;;2064319;28;20220;-53
2021/01/23 00:31:53;;;;;;;38.10;24.40;;;;;;;;;;2064526;28;20190;-59
2021/01/23 00:32:53;;;;;;;33.03;23.17;;;;;;;;;;2072461;28;20212;-55
2021/01/23 00:33:54;;;;;;;37.07;23.30;;;;;;;;;;2072983;28;20184;-55
2021/01/23 00:34:54;;;;;;;32.17;23.50;;;;;;;;;;2067904;28;20170;-54
2021/01/23 00:35:54;;;;;;;34.70;22.77;;;;;;;;;;2064120;28;20182;-56
2021/01/23 00:36:54;;;;;;;35.23;22.57;;;;;;;;;;2064372;28;20210;-53
2021/01/23 00:37:55;;;;;;;31.67;21.53;;;;;;;;;;2063934;28;20174;-59
2021/01/23 00:38:55;;;;;;;38.83;23.13;;;;;;;;;;2064662;28;20220;-58
2021/01/23 00:39:55;;;;;;;35.80;22.03;;;;;;;;;;2061377;28;20192;-56
2021/01/23 00:40:55;;;;;;;35.93;23.30;;;;;;;;;;2050848;28;20179;-59
2021/01/23 00:41:56;;;;;;;34.30;22.37;;;;;;;;;;2066431;28;20169;-56
2021/01/23 00:42:56;;;;;;;38.00;25.03;;;;;;;;;;2065340;28;20205;-58
2021/01/23 00:43:57;;;;;;;35.73;22.83;;;;;;;;;;2066182;28;20197;-57
2021/01/23 00:44:57;;;;;;;38.53;24.67;;;;;;;;;;2074922;28;20180;-53
2021/01/23 00:45:57;;;;;;;35.37;23.37;;;;;;;;;;2074920;28;20173;-58
2021/01/23 00:46:57;;;;;;;34.97;23.43;;;;;;;;;;2066065;28;20178;-58
2021/01/23 00:47:58;;;;;;;36.77;23.83;;;;;;;;;;2058798;28;20585;-58
2021/01/23 00:48:58;;;;;;;34.03;23.43;;;;;;;;;;2058299;28;20678;-59
2021/01/23 00:49:58;;;;;;;35.30;22.97;;;;;;;;;;2058074;28;20233;-56
2021/01/23 00:50:59;;;;;;;41.23;24.60;;;;;;;;;;2049911;29;20182;-56
2021/01/23 00:51:59;;;;;;;35.90;23.43;;;;;;;;;;2058248;28;20181;-56
2021/01/23 00:52:59;;;;;;;36.87;24.20;;;;;;;;;;2064022;28;20193;-56
2021/01/23 00:54:00;;;;;;;31.57;23.37;;;;;;;;;;2057967;28;20296;-58
2021/01/23 00:55:02;;;;;;;33.90;22.63;;;;;;;;;;2062697;28;20174;-57
2021/01/23 00:56:04;;;;;;;40.80;24.83;;;;;;;;;;2058021;28;20849;-59
2021/01/23 00:57:04;;;;;;;36.77;23.67;;;;;;;;;;2057801;28;20443;-56
2021/01/23 00:58:04;;;;;;;42.67;24.57;;;;;;;;;;2058009;28;20198;-56
2021/01/23 00:59:05;;;;;;;39.87;23.10;;;;;;;;;;2058160;28;20178;-55
2021/01/23 01:00:06;;;;;;;43.87;23.93;;;;;;;;;;2067588;28;20170;-56
2021/01/23 01:01:10;;;;;;;38.03;25.47;;;;;;;;;;2065086;28;20718;-54
2021/01/23 01:02:10;;;;;;;36.23;25.70;;;;;;;;;;2062876;28;20421;-55
2021/01/23 01:03:14;;;;;;;38.47;24.43;;;;;;;;;;2072512;28;20589;-53
2021/01/23 01:04:27;;;;;;;30.77;22.93;;;;;;;;;;2062746;28;20444;-51
2021/01/23 01:05:27;;;;;;;42.23;25.67;;;;;;;;;;2064501;28;20407;-57
2021/01/23 01:06:28;;;;;;;36.07;23.93;;;;;;;;;;2074472;28;20185;-53
2021/01/23 01:07:28;;;;;;;36.80;23.97;;;;;;;;;;2074295;28;20235;-54
2021/01/23 01:08:28;;;;;;;34.60;24.50;;;;;;;;;;2074189;28;20274;-55
2021/01/23 01:09:28;;;;;;;35.03;24.47;;;;;;;;;;2074646;28;20168;-51
2021/01/23 01:10:29;;;;;;;41.67;25.23;;;;;;;;;;2074699;28;20199;-55
2021/01/23 01:11:29;;;;;;;34.00;24.87;;;;;;;;;;2074667;28;20192;-56
2021/01/23 01:12:29;;;;;;;38.57;24.00;;;;;;;;;;2062128;28;20190;-57
2021/01/23 01:13:29;;;;;;;43.67;24.90;;;;;;;;;;2063268;28;20211;-55
2021/01/23 01:14:30;;;;;;;38.30;23.13;;;;;;;;;;2071913;28;20184;-53
2021/01/23 01:15:30;;;;;;;37.33;24.87;;;;;;;;;;2073067;28;20185;-54
2021/01/23 01:16:30;;;;;;;36.93;24.53;;;;;;;;;;2074436;28;20235;-55
2021/01/23 01:17:30;;;;;;;41.23;24.50;;;;;;;;;;2073490;28;20173;-56
2021/01/23 01:18:31;;;;;;;36.63;24.87;;;;;;;;;;2065596;28;20623;-55
2021/01/23 01:19:31;;;;;;;38.57;24.60;;;;;;;;;;2065864;28;20154;-57
2021/01/23 01:20:31;;;;;;;36.03;25.13;;;;;;;;;;2074405;28;20669;-57
2021/01/23 01:21:31;;;;;;;39.50;25.57;;;;;;;;;;2074645;28;20548;-57
2021/01/23 01:22:32;;;;;;;34.63;25.23;;;;;;;;;;2063740;28;20174;-55
2021/01/23 01:23:32;;;;;;;45.93;25.90;;;;;;;;;;2065934;28;20166;-56
2021/01/23 01:24:32;;;;;;;35.10;25.07;;;;;;;;;;2061641;28;20194;-59
2021/01/23 01:25:32;;;;;;;40.20;26.57;;;;;;;;;;2059919;28;20249;-57
2021/01/23 01:26:33;;;;;;;44.40;27.83;;;;;;;;;;2066289;28;20630;-56
2021/01/23 01:27:33;;;;;;;40.13;26.10;;;;;;;;;;2057352;28;20313;-58
2021/01/23 01:28:34;;;;;;;40.80;26.67;;;;;;;;;;2057319;28;20198;-58
2021/01/23 01:30:38;;;;;;;45.27;27.13;;;;;;;;;;2082325;28;20284;-58
2021/01/23 01:31:38;;;;;;;40.33;26.23;;;;;;;;;;2080287;28;20893;-58
2021/01/23 01:32:38;;;;;;;41.73;26.73;;;;;;;;;;2080561;28;20185;-59
2021/01/23 01:33:38;;;;;;;43.77;27.30;;;;;;;;;;2082856;28;20187;-57
2021/01/23 01:34:39;;;;;;;43.07;27.87;;;;;;;;;;2080535;28;20168;-57
2021/01/23 01:35:39;;;;;;;45.47;27.17;;;;;;;;;;2082348;28;20223;-58
2021/01/23 01:36:39;;;;;;;40.83;27.07;;;;;;;;;;2092079;28;20215;-57
2021/01/23 01:37:39;;;;;;;46.67;28.27;;;;;;;;;;2092225;28;20191;-58
2021/01/23 01:38:40;;;;;;;54.77;32.33;;;;;;;;;;2092524;28;20208;-57
2021/01/23 01:39:40;;;;;;;43.13;29.83;;;;;;;;;;2089273;28;20194;-59
2021/01/23 01:40:40;;;;;;;48.50;32.10;;;;;;;;;;2092625;28;20175;-59
2021/01/23 01:41:41;;;;;;;46.40;31.07;;;;;;;;;;2083836;28;20168;-56
2021/01/23 01:42:41;;;;;;;42.03;28.73;;;;;;;;;;2068670;28;20193;-60
2021/01/23 01:43:44;;;;;;;40.37;27.97;;;;;;;;;;2083359;28;20272;-59
2021/01/23 01:44:44;;;;;;;43.00;28.23;;;;;;;;;;2075308;28;20642;-54
2021/01/23 01:45:44;;;;;;;46.53;28.43;;;;;;;;;;2083123;28;20413;-59
2021/01/23 01:46:45;;;;;;;48.77;30.03;;;;;;;;;;2092193;28;20194;-54
2021/01/23 01:47:45;;;;;;;47.53;29.27;;;;;;;;;;2081423;28;20188;-57
2021/01/23 01:48:49;;;;;;;41.27;28.27;;;;;;;;;;2066701;28;20192;-54
2021/01/23 01:49:50;;;;;;;46.70;29.97;;;;;;;;;;2075339;28;20235;-57
2021/01/23 01:50:53;;;;;;;42.17;27.50;;;;;;;;;;2074661;28;21242;-56
2021/01/23 01:51:54;;;;;;;44.20;27.83;;;;;;;;;;2074886;28;20402;-59
2021/01/23 01:52:55;;;;;;;43.17;28.60;;;;;;;;;;2081677;28;20448;-59
2021/01/23 01:53:55;;;;;;;44.13;28.50;;;;;;;;;;2080891;28;20563;-57
2021/01/23 01:54:56;;;;;;;42.07;27.83;;;;;;;;;;2089760;28;20176;-59
2021/01/23 01:55:56;;;;;;;43.83;28.17;;;;;;;;;;2083324;28;20188;-59
2021/01/23 01:56:57;;;;;;;39.57;26.87;;;;;;;;;;2083649;28;20287;-56
2021/01/23 01:57:57;;;;;;;42.00;27.27;;;;;;;;;;2091491;28;20191;-56
2021/01/23 01:58:57;;;;;;;39.63;27.10;;;;;;;;;;2091576;28;20176;-59
2021/01/23 01:59:57;;;;;;;47.50;29.60;;;;;;;;;;2091676;28;20183;-58
2021/01/23 02:00:58;;;;;;;42.67;26.80;;;;;;;;;;2091730;28;20211;-55
2021/01/23 02:02:27;;;;;;;38.50;27.37;;;;;;;;;;2086604;28;20208;-58
2021/01/23 02:03:36;;;;;;;37.67;26.83;;;;;;;;;;2078700;28;20191;-58
2021/01/23 02:04:46;;;;;;;42.97;27.97;;;;;;;;;;2091076;28;20412;-57
2021/01/23 02:05:54;;;;;;;47.20;28.60;;;;;;;;;;2091593;28;20423;-58
2021/01/23 02:06:58;;;;;;;46.50;28.57;;;;;;;;;;2091904;28;20404;-57
2021/01/23 02:08:13;;;;;;;53.03;30.83;;;;;;;;;;2091063;28;20428;-60
2021/01/23 02:09:24;;;;;;;44.97;28.13;;;;;;;;;;2091516;28;20420;-59
2021/01/23 02:10:34;;;;;;;44.10;30.20;;;;;;;;;;2092146;28;20458;-56
2021/01/23 02:11:58;;;;;;;44.73;27.87;;;;;;;;;;2082402;28;20453;-58
2021/01/23 02:13:01;;;;;;;51.60;27.00;;;;;;;;;;2077350;28;20441;-55
2021/01/23 02:14:01;;;;;;;41.10;27.80;;;;;;;;;;2079663;28;20410;-60
2021/01/23 02:15:12;;;;;;;43.07;27.27;;;;;;;;;;2085976;28;20465;-58
2021/01/23 02:16:17;;;;;;;40.57;27.10;;;;;;;;;;2090080;28;20186;-58
2021/01/23 02:17:19;;;;;;;38.83;27.03;;;;;;;;;;2090284;28;20418;-57
2021/01/23 02:18:20;;;;;;;39.43;27.23;;;;;;;;;;2081880;28;20551;-57
2021/01/23 02:19:31;;;;;;;38.90;27.87;;;;;;;;;;2082097;28;20726;-56
2021/01/23 02:20:37;;;;;;;46.27;29.47;;;;;;;;;;2081903;28;20417;-57
2021/01/23 02:21:49;;;;;;;39.90;27.77;;;;;;;;;;2074897;28;20976;-58
2021/01/23 02:23:02;;;;;;;44.53;29.10;;;;;;;;;;2077033;28;20387;-57
2021/01/23 02:24:03;;;;;;;43.47;28.30;;;;;;;;;;2090116;28;20503;-58
2021/01/23 02:25:04;;;;;;;44.23;29.10;;;;;;;;;;2077727;28;20405;-57
2021/01/23 02:26:20;;;;;;;41.37;28.30;;;;;;;;;;2081610;28;20417;-57
2021/01/23 02:27:45;;;;;;;45.83;28.53;;;;;;;;;;2080224;28;20439;-59
2021/01/23 02:29:04;;;;;;;42.43;26.90;;;;;;;;;;2044261;29;20437;-59
2021/01/23 02:30:07;;;;;;;40.00;25.70;;;;;;;;;;2088066;28;20476;-56
2021/01/23 02:31:07;;;;;;;43.53;27.47;;;;;;;;;;2087110;28;20410;-58
2021/01/23 02:32:08;;;;;;;39.83;27.33;;;;;;;;;;2088468;28;20454;-58
2021/01/23 02:33:09;;;;;;;37.57;26.30;;;;;;;;;;2086818;28;20187;-58
2021/01/23 02:34:10;;;;;;;42.00;25.70;;;;;;;;;;2085702;28;20168;-58
2021/01/23 02:35:12;;;;;;;38.40;26.57;;;;;;;;;;2088677;28;20184;-56
2021/01/23 02:36:12;;;;;;;42.03;26.33;;;;;;;;;;2089793;28;20175;-59
2021/01/23 02:37:13;;;;;;;43.57;26.73;;;;;;;;;;2085521;28;20172;-56
2021/01/23 02:38:14;;;;;;;42.40;27.27;;;;;;;;;;2090574;28;20232;-58
2021/01/23 02:39:16;;;;;;;47.57;28.33;;;;;;;;;;2083304;28;20200;-59
2021/01/23 02:40:17;;;;;;;40.23;27.17;;;;;;;;;;2090246;28;20428;-59
2021/01/23 02:41:17;;;;;;;38.23;26.43;;;;;;;;;;2085612;28;20886;-57
2021/01/23 02:42:17;;;;;;;40.43;27.03;;;;;;;;;;2083051;28;20164;-58
2021/01/23 02:43:21;;;;;;;39.47;27.03;;;;;;;;;;2088640;28;20211;-57
2021/01/23 02:44:21;;;;;;;42.53;28.10;;;;;;;;;;2082495;28;20168;-59
2021/01/23 02:45:21;;;;;;;39.73;27.87;;;;;;;;;;2083849;28;20533;-57
2021/01/23 02:46:21;;;;;;;39.77;28.97;;;;;;;;;;2089482;28;20172;-59
2021/01/23 02:47:22;;;;;;;42.33;28.20;;;;;;;;;;2080772;28;20168;-59
2021/01/23 02:48:22;;;;;;;43.00;28.03;;;;;;;;;;2073917;28;20173;-55
2021/01/23 02:49:23;;;;;;;41.20;28.83;;;;;;;;;;2079645;28;20337;-55
2021/01/23 02:50:23;;;;;;;41.70;28.37;;;;;;;;;;2080883;28;20196;-59
2021/01/23 02:51:26;;;;;;;41.33;29.40;;;;;;;;;;2079145;28;20181;-57
2021/01/23 02:52:45;;;;;;;40.00;29.00;;;;;;;;;;2088873;28;20179;-55
2021/01/23 02:53:48;;;;;;;46.93;29.77;;;;;;;;;;2071506;28;20501;-57
2021/01/23 02:55:07;;;;;;;48.30;30.90;;;;;;;;;;2074160;28;20445;-56
2021/01/23 02:56:10;;;;;;;46.80;29.67;;;;;;;;;;2086902;28;21055;-59
2021/01/23 02:57:11;;;;;;;51.57;31.77;;;;;;;;;;2087424;28;20413;-59
2021/01/23 02:58:12;;;;;;;49.70;31.73;;;;;;;;;;2089716;28;20429;-54
2021/01/23 02:59:12;;;;;;;49.87;31.73;;;;;;;;;;2090415;28;20184;-59
2021/01/23 03:00:13;;;;;;;56.57;31.70;;;;;;;;;;2091040;28;20576;-57
2021/01/23 03:01:14;;;;;;;49.33;32.07;;;;;;;;;;2086136;28;20180;-55
2021/01/23 03:02:15;;;;;;;57.60;33.63;;;;;;;;;;2086632;28;20662;-60
2021/01/23 03:03:16;;;;;;;55.23;33.60;;;;;;;;;;2087585;28;20264;-57
2021/01/23 03:04:18;;;;;;;54.67;33.17;;;;;;;;;;2076598;28;20410;-57
2021/01/23 03:05:19;;;;;;;49.60;32.60;;;;;;;;;;2073028;28;20406;-60
2021/01/23 03:06:19;;;;;;;48.23;33.50;;;;;;;;;;2081220;28;20505;-57
2021/01/23 03:07:20;;;;;;;53.73;32.73;;;;;;;;;;2081593;28;20161;-57
2021/01/23 03:08:20;;;;;;;53.87;32.70;;;;;;;;;;2081334;28;20176;-57
2021/01/23 03:09:21;;;;;;;55.27;33.50;;;;;;;;;;2086883;28;20175;-58
2021/01/23 03:10:41;;;;;;;49.13;31.43;;;;;;;;;;2090095;28;20267;-59
2021/01/23 03:11:41;;;;;;;50.93;31.03;;;;;;;;;;2082040;28;20199;-58
2021/01/23 03:12:41;;;;;;;47.83;29.97;;;;;;;;;;2090545;28;20412;-56
2021/01/23 03:13:41;;;;;;;49.80;29.60;;;;;;;;;;2087482;28;20176;-59
2021/01/23 03:14:42;;;;;;;51.37;31.43;;;;;;;;;;2088115;28;20249;-59
2021/01/23 03:15:42;;;;;;;51.40;31.43;;;;;;;;;;2093639;28;20514;-57
2021/01/23 03:16:49;;;;;;;43.00;30.57;;;;;;;;;;2077349;28;20329;-59
2021/01/23 03:17:49;;;;;;;44.87;30.03;;;;;;;;;;2076439;28;20176;-56
2021/01/23 03:18:49;;;;;;;50.30;29.83;;;;;;;;;;2073430;28;20422;-56
2021/01/23 03:19:50;;;;;;;47.23;31.10;;;;;;;;;;2077157;28;20168;-58
2021/01/23 03:20:50;;;;;;;43.70;28.20;;;;;;;;;;2081988;28;20172;-57
2021/01/23 03:21:51;;;;;;;44.90;28.73;;;;;;;;;;2081879;28;20200;-60
2021/01/23 03:22:52;;;;;;;44.60;28.50;;;;;;;;;;2082339;28;20281;-61
2021/01/23 03:23:52;;;;;;;45.60;29.20;;;;;;;;;;2082434;28;20165;-59
2021/01/23 03:24:52;;;;;;;44.10;27.83;;;;;;;;;;2089650;28;20188;-57
2021/01/23 03:25:52;;;;;;;41.80;28.13;;;;;;;;;;2089181;28;20191;-56
2021/01/23 03:26:53;;;;;;;38.53;27.13;;;;;;;;;;2074368;28;20193;-59
2021/01/23 03:27:53;;;;;;;43.60;27.47;;;;;;;;;;2075331;28;20173;-57
2021/01/23 03:28:54;;;;;;;37.80;26.13;;;;;;;;;;2082053;28;20210;-58
2021/01/23 03:29:54;;;;;;;37.27;26.50;;;;;;;;;;2082017;28;20578;-57
2021/01/23 03:30:54;;;;;;;35.33;25.83;;;;;;;;;;2082056;28;20215;-58
2021/01/23 03:31:54;;;;;;;36.33;26.27;;;;;;;;;;2083663;28;20615;-58
2021/01/23 03:32:55;;;;;;;41.43;27.50;;;;;;;;;;2088222;28;20184;-57
2021/01/23 03:33:56;;;;;;;39.20;25.60;;;;;;;;;;2081873;28;20179;-60
2021/01/23 03:34:56;;;;;;;36.33;25.67;;;;;;;;;;2081953;28;20184;-59
2021/01/23 03:35:56;;;;;;;40.27;24.53;;;;;;;;;;2081138;28;20176;-58
2021/01/23 03:36:57;;;;;;;35.97;25.80;;;;;;;;;;2082443;28;20269;-59
2021/01/23 03:37:57;;;;;;;38.77;26.33;;;;;;;;;;2086642;28;20161;-58
2021/01/23 03:38:57;;;;;;;39.10;25.77;;;;;;;;;;2083941;28;20191;-58
2021/01/23 03:39:58;;;;;;;34.90;24.60;;;;;;;;;;2089022;28;20267;-58
2021/01/23 03:40:58;;;;;;;34.27;25.60;;;;;;;;;;2089384;28;20164;-58
2021/01/23 03:41:58;;;;;;;39.37;26.00;;;;;;;;;;2086772;28;20202;-55
2021/01/23 03:42:58;;;;;;;38.60;25.50;;;;;;;;;;2083704;28;20178;-58
2021/01/23 03:43:59;;;;;;;33.57;25.47;;;;;;;;;;2089335;28;20171;-59
2021/01/23 03:44:59;;;;;;;32.90;24.20;;;;;;;;;;2089451;28;20210;-57
2021/01/23 03:45:59;;;;;;;33.67;24.20;;;;;;;;;;2089419;28;20263;-58
2021/01/23 03:47:00;;;;;;;32.87;25.07;;;;;;;;;;2080610;28;20184;-54
2021/01/23 03:48:00;;;;;;;35.03;24.17;;;;;;;;;;2080110;28;20252;-56
2021/01/23 03:49:00;;;;;;;32.87;24.83;;;;;;;;;;2087322;28;20301;-56
2021/01/23 03:50:01;;;;;;;37.13;24.83;;;;;;;;;;2080813;28;20605;-59
2021/01/23 03:51:01;;;;;;;35.87;24.83;;;;;;;;;;2081158;28;20179;-59
2021/01/23 03:52:02;;;;;;;36.40;25.50;;;;;;;;;;2081727;28;20606;-60
2021/01/23 03:53:02;;;;;;;37.10;24.80;;;;;;;;;;2090272;28;20182;-57
2021/01/23 03:54:02;;;;;;;36.47;25.77;;;;;;;;;;2087209;28;20609;-56
2021/01/23 03:55:04;;;;;;;40.77;25.43;;;;;;;;;;2087045;28;20182;-59
2021/01/23 03:56:04;;;;;;;37.43;24.37;;;;;;;;;;2086982;28;20171;-58
2021/01/23 03:57:04;;;;;;;33.77;23.73;;;;;;;;;;2084086;28;20848;-60
2021/01/23 03:58:04;;;;;;;32.87;23.77;;;;;;;;;;2086067;28;20172;-58
2021/01/23 03:59:05;;;;;;;33.40;23.13;;;;;;;;;;2085473;28;20693;-58
2021/01/23 04:00:06;;;;;;;36.53;24.97;;;;;;;;;;2077702;28;20491;-57
2021/01/23 04:01:06;;;;;;;32.17;24.60;;;;;;;;;;2068198;28;20633;-58
2021/01/23 04:02:06;;;;;;;34.30;25.83;;;;;;;;;;2068713;28;20427;-61
2021/01/23 04:03:07;;;;;;;38.47;24.27;;;;;;;;;;2074202;28;20169;-60
2021/01/23 04:04:07;;;;;;;37.10;25.63;;;;;;;;;;2089534;28;20545;-61
2021/01/23 04:05:07;;;;;;;36.13;24.77;;;;;;;;;;2076369;28;20177;-60
2021/01/23 04:06:08;;;;;;;34.73;24.60;;;;;;;;;;2077099;28;20173;-56
2021/01/23 04:07:08;;;;;;;37.53;24.17;;;;;;;;;;2072713;28;20231;-55
2021/01/23 04:08:08;;;;;;;33.77;24.00;;;;;;;;;;2068591;28;20259;-60
2021/01/23 04:09:09;;;;;;;34.67;23.87;;;;;;;;;;2080779;28;20641;-56
2021/01/23 04:10:09;;;;;;;35.43;23.93;;;;;;;;;;2085453;28;20195;-58
2021/01/23 04:11:09;;;;;;;29.27;22.37;;;;;;;;;;2085861;28;20207;-57
2021/01/23 04:12:10;;;;;;;29.97;21.77;;;;;;;;;;2085758;28;20169;-58
2021/01/23 04:13:10;;;;;;;37.10;24.40;;;;;;;;;;2085553;28;20179;-57
2021/01/23 04:14:10;;;;;;;37.67;24.33;;;;;;;;;;2081752;28;20172;-58
2021/01/23 04:15:11;;;;;;;31.77;24.13;;;;;;;;;;2081041;28;20180;-59
2021/01/23 04:16:11;;;;;;;30.27;24.50;;;;;;;;;;2085666;28;20510;-58
2021/01/23 04:17:12;;;;;;;33.00;24.00;;;;;;;;;;2085031;28;20165;-57
2021/01/23 04:18:12;;;;;;;33.10;24.10;;;;;;;;;;2072951;28;20181;-58
2021/01/23 04:19:13;;;;;;;31.67;24.00;;;;;;;;;;2074338;28;20204;-58
2021/01/23 04:20:13;;;;;;;33.43;24.60;;;;;;;;;;2089911;28;20201;-56
2021/01/23 04:21:13;;;;;;;37.83;25.33;;;;;;;;;;2089469;28;20178;-59
2021/01/23 04:22:13;;;;;;;33.00;24.93;;;;;;;;;;2085497;28;20176;-59
2021/01/23 04:23:14;;;;;;;30.63;24.30;;;;;;;;;;2077454;28;20172;-59
2021/01/23 04:24:14;;;;;;;31.13;23.63;;;;;;;;;;2079510;28;20750;-59
2021/01/23 04:25:14;;;;;;;33.30;24.37;;;;;;;;;;2081388;28;20600;-57
2021/01/23 04:26:14;;;;;;;35.37;23.70;;;;;;;;;;2081715;28;20528;-58
2021/01/23 04:27:15;;;;;;;37.47;25.00;;;;;;;;;;2085805;28;20203;-57
2021/01/23 04:28:15;;;;;;;32.47;23.80;;;;;;;;;;2089192;28;20804;-59
2021/01/23 04:29:15;;;;;;;33.83;25.03;;;;;;;;;;2089513;28;20179;-59
2021/01/23 04:30:16;;;;;;;29.83;23.77;;;;;;;;;;2084867;28;20275;-58
2021/01/23 04:31:16;;;;;;;34.47;26.10;;;;;;;;;;2072791;28;20268;-56
2021/01/23 04:32:16;;;;;;;33.83;25.60;;;;;;;;;;2073439;28;20587;-57
2021/01/23 04:33:16;;;;;;;32.87;24.80;;;;;;;;;;2087270;28;20170;-58
2021/01/23 04:34:17;;;;;;;36.07;24.67;;;;;;;;;;2078673;28;20169;-58
2021/01/23 04:35:17;;;;;;;31.50;23.67;;;;;;;;;;2075964;28;20235;-56
2021/01/23 04:36:17;;;;;;;34.10;24.07;;;;;;;;;;2086727;28;20172;-58
2021/01/23 04:37:19;;;;;;;36.27;25.43;;;;;;;;;;2075183;28;20680;-56
2021/01/23 04:38:20;;;;;;;36.00;25.33;;;;;;;;;;2069057;28;20172;-59
2021/01/23 04:39:20;;;;;;;32.23;24.53;;;;;;;;;;2080914;28;20783;-59
2021/01/23 04:40:20;;;;;;;38.90;25.83;;;;;;;;;;2080824;28;20283;-62
2021/01/23 04:41:21;;;;;;;36.50;26.17;;;;;;;;;;2072352;28;20199;-59
2021/01/23 04:42:22;;;;;;;35.70;26.20;;;;;;;;;;2080526;28;20611;-57
2021/01/23 04:43:22;;;;;;;34.87;25.00;;;;;;;;;;2075143;28;20410;-63
2021/01/23 04:44:23;;;;;;;34.93;26.53;;;;;;;;;;2075530;28;20187;-59
2021/01/23 04:45:23;;;;;;;37.77;25.13;;;;;;;;;;2081284;28;20172;-59
2021/01/23 04:46:23;;;;;;;34.63;24.30;;;;;;;;;;2080678;28;20254;-58
2021/01/23 04:47:23;;;;;;;34.13;25.07;;;;;;;;;;2086619;28;20176;-57
2021/01/23 04:48:24;;;;;;;38.30;26.33;;;;;;;;;;2088273;28;20168;-59
2021/01/23 04:49:24;;;;;;;38.27;26.07;;;;;;;;;;2088948;28;20179;-56
2021/01/23 04:50:24;;;;;;;36.73;24.97;;;;;;;;;;2074633;28;20689;-57
2021/01/23 04:51:25;;;;;;;40.53;27.20;;;;;;;;;;2078882;28;20218;-59
2021/01/23 04:52:25;;;;;;;32.63;26.37;;;;;;;;;;2083309;28;20168;-59
2021/01/23 04:53:26;;;;;;;36.17;24.63;;;;;;;;;;2080282;28;20941;-58
2021/01/23 04:54:26;;;;;;;36.93;27.67;;;;;;;;;;2074277;28;20192;-58
2021/01/23 04:55:26;;;;;;;40.17;27.17;;;;;;;;;;2087428;28;20653;-58
2021/01/23 04:56:27;;;;;;;34.90;24.93;;;;;;;;;;2083114;28;20188;-55
2021/01/23 04:57:28;;;;;;;37.20;25.97;;;;;;;;;;2080383;28;20307;-58
2021/01/23 04:58:28;;;;;;;36.47;26.37;;;;;;;;;;2076796;28;20471;-56
2021/01/23 04:59:29;;;;;;;36.13;26.10;;;;;;;;;;2080731;28;20180;-58
2021/01/23 05:00:29;;;;;;;32.83;26.30;;;;;;;;;;2082594;28;20199;-58
2021/01/23 05:01:29;;;;;;;38.33;26.23;;;;;;;;;;2086875;28;20538;-60
2021/01/23 05:02:30;;;;;;;34.73;26.07;;;;;;;;;;2080754;28;20572;-58
2021/01/23 05:03:30;;;;;;;34.67;27.43;;;;;;;;;;2075976;28;20173;-60
2021/01/23 05:04:41;;;;;;;38.40;27.83;;;;;;;;;;2087882;28;20186;-58
2021/01/23 05:05:41;;;;;;;37.00;26.63;;;;;;;;;;2076848;28;20187;-57
2021/01/23 05:06:56;;;;;;;35.47;26.90;;;;;;;;;;2080156;28;20851;-58
2021/01/23 05:08:06;;;;;;;35.67;26.50;;;;;;;;;;2086278;28;20191;-60
2021/01/23 05:09:07;;;;;;;32.20;25.77;;;;;;;;;;2088667;28;20409;-60
2021/01/23 05:10:16;;;;;;;35.60;25.83;;;;;;;;;;2087710;28;20436;-59
2021/01/23 05:11:17;;;;;;;37.27;26.90;;;;;;;;;;2085512;28;20192;-58
2021/01/23 05:12:33;;;;;;;35.80;27.47;;;;;;;;;;2085689;28;20486;-57
2021/01/23 05:13:33;;;;;;;42.63;25.73;;;;;;;;;;2082312;28;20182;-60
2021/01/23 05:14:34;;;;;;;36.37;26.47;;;;;;;;;;2077683;28;20437;-57
2021/01/23 05:15:34;;;;;;;38.93;26.93;;;;;;;;;;2078577;28;20226;-58
2021/01/23 05:16:35;;;;;;;35.03;26.63;;;;;;;;;;2089425;28;20210;-59
2021/01/23 05:17:45;;;;;;;38.83;25.80;;;;;;;;;;2081446;28;20196;-58
2021/01/23 05:18:53;;;;;;;36.33;26.97;;;;;;;;;;2088230;28;20176;-56
2021/01/23 05:19:54;;;;;;;36.40;26.07;;;;;;;;;;2078196;28;20413;-58
2021/01/23 05:20:54;;;;;;;35.00;26.50;;;;;;;;;;2065736;28;20978;-56
2021/01/23 05:22:00;;;;;;;37.50;25.83;;;;;;;;;;2065695;28;20181;-58
2021/01/23 05:23:02;;;;;;;38.80;26.23;;;;;;;;;;2075953;28;20185;-59
2021/01/23 05:24:04;;;;;;;35.10;26.23;;;;;;;;;;2080311;28;20421;-58
2021/01/23 05:25:06;;;;;;;38.90;26.03;;;;;;;;;;2075990;28;20459;-58
2021/01/23 05:26:07;;;;;;;33.77;25.53;;;;;;;;;;2087179;28;20792;-59
2021/01/23 05:27:07;;;;;;;32.37;24.90;;;;;;;;;;2089575;28;20471;-58
2021/01/23 05:28:09;;;;;;;36.07;27.27;;;;;;;;;;2072572;28;20646;-58
2021/01/23 05:29:14;;;;;;;35.00;25.87;;;;;;;;;;2077173;28;20194;-58
2021/01/23 05:30:14;;;;;;;32.63;25.57;;;;;;;;;;2088010;28;20501;-59
2021/01/23 05:31:15;;;;;;;35.50;23.97;;;;;;;;;;2081172;28;21140;-58
2021/01/23 05:32:17;;;;;;;31.67;23.63;;;;;;;;;;2080597;28;20771;-58
2021/01/23 05:33:18;;;;;;;33.10;25.43;;;;;;;;;;2087456;28;20907;-59
2021/01/23 05:34:26;;;;;;;34.93;25.13;;;;;;;;;;2087737;28;20774;-58
2021/01/23 05:35:26;;;;;;;34.70;25.17;;;;;;;;;;2080662;28;20496;-58
2021/01/23 05:36:26;;;;;;;34.93;25.37;;;;;;;;;;2077093;28;20790;-58
2021/01/23 05:37:34;;;;;;;36.40;26.77;;;;;;;;;;2089045;28;20253;-58
2021/01/23 05:38:38;;;;;;;33.13;25.20;;;;;;;;;;2083751;28;20180;-59
2021/01/23 05:39:48;;;;;;;36.87;24.90;;;;;;;;;;2080065;28;20419;-58
2021/01/23 05:40:51;;;;;;;38.23;25.50;;;;;;;;;;2086092;28;20439;-59
2021/01/23 05:42:18;;;;;;;35.27;25.20;;;;;;;;;;2081020;28;20993;-57
2021/01/23 05:43:28;;;;;;;36.57;24.00;;;;;;;;;;2078067;28;20523;-59
2021/01/23 05:44:29;;;;;;;34.73;24.87;;;;;;;;;;2086052;28;21023;-58
2021/01/23 05:45:29;;;;;;;36.37;25.93;;;;;;;;;;2080543;28;20506;-59
2021/01/23 05:46:30;;;;;;;36.10;25.37;;;;;;;;;;2070289;28;20235;-59
2021/01/23 05:47:30;;;;;;;34.33;25.40;;;;;;;;;;2081021;28;20710;-58
2021/01/23 05:48:31;;;;;;;34.80;24.40;;;;;;;;;;2083686;28;20431;-59
2021/01/23 05:49:31;;;;;;;37.47;26.83;;;;;;;;;;2077276;28;21063;-59
2021/01/23 05:50:31;;;;;;;34.37;26.10;;;;;;;;;;2080310;28;20250;-59
2021/01/23 05:51:32;;;;;;;41.90;26.10;;;;;;;;;;2091104;28;20190;-60
2021/01/23 05:52:32;;;;;;;39.13;25.13;;;;;;;;;;2074930;28;20212;-59
2021/01/23 05:53:33;;;;;;;35.47;25.07;;;;;;;;;;2081145;28;20259;-60
2021/01/23 05:54:33;;;;;;;31.00;24.97;;;;;;;;;;2087755;28;20184;-58
2021/01/23 05:55:33;;;;;;;31.53;23.47;;;;;;;;;;2079980;28;20316;-59
2021/01/23 05:56:34;;;;;;;38.67;24.80;;;;;;;;;;2081592;28;20291;-58
2021/01/23 05:57:35;;;;;;;34.57;25.40;;;;;;;;;;2089592;28;20571;-57
2021/01/23 05:58:38;;;;;;;36.57;25.03;;;;;;;;;;2089597;28;20178;-58
2021/01/23 05:59:42;;;;;;;37.87;25.80;;;;;;;;;;2082496;28;20669;-60
2021/01/23 06:00:43;;;;;;;36.47;26.57;;;;;;;;;;2087193;28;20424;-56